sensor_id;sensor_type;location;lat;lon;timestamp;P1;durP1;ratioP1;P2;durP2;ratioP2
36725;SDS011;44936;52.086;5.150;2022-11-21T00:01:38;20.58;;;6.78;;
36725;SDS011;44936;52.086;5.150;2022-11-21T00:04:03;26.42;;;6.70;;
36725;SDS011;44936;52.086;5.150;2022-11-21T00:06:29;18.17;;;5.95;;
36725;SDS011;44936;52.086;5.150;2022-11-21T00:08:54;21.33;;;7.22;;
36725;SDS011;44936;52.086;5.150;2022-11-21T00:11:20;19.90;;;5.93;;
36725;SDS011;44936;52.086;5.150;2022-11-21T00:14:09;23.27;;;6.18;;
36725;SDS011;44936;52.086;5.150;2022-11-21T00:16:37;19.48;;;6.68;;
36725;SDS011;44936;52.086;5.150;2022-11-21T00:19:04;23.63;;;7.28;;
36725;SDS011;44936;52.086;5.150;2022-11-21T00:21:30;20.58;;;6.13;;
36725;SDS011;44936;52.086;5.150;2022-11-21T00:23:56;19.02;;;5.97;;
36725;SDS011;44936;52.086;5.150;2022-11-21T00:26:24;18.92;;;6.15;;
36725;SDS011;44936;52.086;5.150;2022-11-21T00:28:52;22.60;;;6.47;;
36725;SDS011;44936;52.086;5.150;2022-11-21T00:31:21;19.30;;;6.07;;
36725;SDS011;44936;52.086;5.150;2022-11-21T00:33:50;22.23;;;6.22;;
36725;SDS011;44936;52.086;5.150;2022-11-21T00:36:15;21.85;;;6.25;;
36725;SDS011;44936;52.086;5.150;2022-11-21T00:38:41;19.52;;;6.85;;
36725;SDS011;44936;52.086;5.150;2022-11-21T00:41:06;26.10;;;7.50;;
36725;SDS011;44936;52.086;5.150;2022-11-21T00:43:36;20.65;;;6.65;;
36725;SDS011;44936;52.086;5.150;2022-11-21T00:46:08;24.40;;;7.35;;
36725;SDS011;44936;52.086;5.150;2022-11-21T00:48:33;21.33;;;6.55;;
36725;SDS011;44936;52.086;5.150;2022-11-21T00:50:58;22.90;;;6.32;;
36725;SDS011;44936;52.086;5.150;2022-11-21T00:53:24;17.00;;;5.50;;
36725;SDS011;44936;52.086;5.150;2022-11-21T00:55:50;21.20;;;7.25;;
36725;SDS011;44936;52.086;5.150;2022-11-21T00:58:22;20.98;;;7.13;;
36725;SDS011;44936;52.086;5.150;2022-11-21T01:00:47;22.23;;;6.95;;
36725;SDS011;44936;52.086;5.150;2022-11-21T01:03:13;18.83;;;5.57;;
36725;SDS011;44936;52.086;5.150;2022-11-21T01:05:41;22.25;;;6.38;;
36725;SDS011;44936;52.086;5.150;2022-11-21T01:08:07;23.58;;;6.30;;
36725;SDS011;44936;52.086;5.150;2022-11-21T01:10:34;18.65;;;6.05;;
36725;SDS011;44936;52.086;5.150;2022-11-21T01:13:03;20.33;;;6.00;;
36725;SDS011;44936;52.086;5.150;2022-11-21T01:15:29;16.55;;;4.78;;
36725;SDS011;44936;52.086;5.150;2022-11-21T01:17:54;21.00;;;5.90;;
36725;SDS011;44936;52.086;5.150;2022-11-21T01:20:22;22.83;;;6.32;;
36725;SDS011;44936;52.086;5.150;2022-11-21T01:22:47;19.58;;;5.00;;
36725;SDS011;44936;52.086;5.150;2022-11-21T01:25:16;20.00;;;6.40;;
36725;SDS011;44936;52.086;5.150;2022-11-21T01:27:41;21.95;;;6.50;;
36725;SDS011;44936;52.086;5.150;2022-11-21T01:30:09;21.75;;;5.68;;
36725;SDS011;44936;52.086;5.150;2022-11-21T01:32:47;24.38;;;5.63;;
36725;SDS011;44936;52.086;5.150;2022-11-21T01:35:14;20.45;;;5.78;;
36725;SDS011;44936;52.086;5.150;2022-11-21T01:37:52;21.17;;;6.40;;
36725;SDS011;44936;52.086;5.150;2022-11-21T01:40:23;21.80;;;6.45;;
36725;SDS011;44936;52.086;5.150;2022-11-21T01:43:01;20.15;;;5.97;;
36725;SDS011;44936;52.086;5.150;2022-11-21T01:48:15;20.75;;;6.00;;
36725;SDS011;44936;52.086;5.150;2022-11-21T01:50:46;22.67;;;6.05;;
36725;SDS011;44936;52.086;5.150;2022-11-21T01:53:12;28.20;;;7.05;;
36725;SDS011;44936;52.086;5.150;2022-11-21T01:55:56;27.27;;;7.43;;
36725;SDS011;44936;52.086;5.150;2022-11-21T01:58:25;28.20;;;7.30;;
36725;SDS011;44936;52.086;5.150;2022-11-21T02:00:50;20.40;;;6.25;;
36725;SDS011;44936;52.086;5.150;2022-11-21T02:03:20;31.10;;;7.55;;
36725;SDS011;44936;52.086;5.150;2022-11-21T02:05:52;24.60;;;6.70;;
36725;SDS011;44936;52.086;5.150;2022-11-21T02:08:21;25.73;;;6.97;;
36725;SDS011;44936;52.086;5.150;2022-11-21T02:13:25;21.45;;;5.40;;
36725;SDS011;44936;52.086;5.150;2022-11-21T02:15:52;28.35;;;7.03;;
36725;SDS011;44936;52.086;5.150;2022-11-21T02:18:23;21.80;;;6.20;;
36725;SDS011;44936;52.086;5.150;2022-11-21T02:20:52;25.45;;;6.35;;
36725;SDS011;44936;52.086;5.150;2022-11-21T02:23:28;18.17;;;5.03;;
36725;SDS011;44936;52.086;5.150;2022-11-21T02:26:02;20.35;;;6.10;;
36725;SDS011;44936;52.086;5.150;2022-11-21T02:28:27;19.83;;;5.75;;
36725;SDS011;44936;52.086;5.150;2022-11-21T02:30:53;20.95;;;5.50;;
36725;SDS011;44936;52.086;5.150;2022-11-21T02:33:21;25.20;;;7.13;;
36725;SDS011;44936;52.086;5.150;2022-11-21T02:35:59;18.40;;;5.95;;
36725;SDS011;44936;52.086;5.150;2022-11-21T02:38:32;25.92;;;6.47;;
36725;SDS011;44936;52.086;5.150;2022-11-21T02:41:09;19.08;;;5.50;;
36725;SDS011;44936;52.086;5.150;2022-11-21T02:43:41;20.35;;;5.57;;
36725;SDS011;44936;52.086;5.150;2022-11-21T02:46:17;22.35;;;6.35;;
36725;SDS011;44936;52.086;5.150;2022-11-21T02:48:52;19.05;;;5.28;;
36725;SDS011;44936;52.086;5.150;2022-11-21T02:51:22;20.35;;;6.55;;
36725;SDS011;44936;52.086;5.150;2022-11-21T02:53:48;21.10;;;6.05;;
36725;SDS011;44936;52.086;5.150;2022-11-21T02:56:13;24.20;;;6.32;;
36725;SDS011;44936;52.086;5.150;2022-11-21T02:58:39;18.00;;;5.75;;
36725;SDS011;44936;52.086;5.150;2022-11-21T03:01:11;22.33;;;5.32;;
36725;SDS011;44936;52.086;5.150;2022-11-21T03:03:39;19.63;;;4.88;;
36725;SDS011;44936;52.086;5.150;2022-11-21T03:06:04;17.35;;;4.43;;
36725;SDS011;44936;52.086;5.150;2022-11-21T03:08:30;20.02;;;5.13;;
36725;SDS011;44936;52.086;5.150;2022-11-21T03:11:02;20.27;;;5.30;;
36725;SDS011;44936;52.086;5.150;2022-11-21T03:13:27;25.60;;;6.07;;
36725;SDS011;44936;52.086;5.150;2022-11-21T03:16:03;20.83;;;6.30;;
36725;SDS011;44936;52.086;5.150;2022-11-21T03:18:30;15.98;;;4.97;;
36725;SDS011;44936;52.086;5.150;2022-11-21T03:21:04;22.90;;;5.97;;
36725;SDS011;44936;52.086;5.150;2022-11-21T03:23:29;20.75;;;6.03;;
36725;SDS011;44936;52.086;5.150;2022-11-21T03:25:58;18.77;;;6.13;;
36725;SDS011;44936;52.086;5.150;2022-11-21T03:28:28;17.25;;;4.60;;
36725;SDS011;44936;52.086;5.150;2022-11-21T03:30:57;21.52;;;5.78;;
36725;SDS011;44936;52.086;5.150;2022-11-21T03:33:22;22.83;;;6.47;;
36725;SDS011;44936;52.086;5.150;2022-11-21T03:35:48;20.35;;;5.75;;
36725;SDS011;44936;52.086;5.150;2022-11-21T03:38:13;19.65;;;5.60;;
36725;SDS011;44936;52.086;5.150;2022-11-21T03:40:39;25.85;;;5.55;;
36725;SDS011;44936;52.086;5.150;2022-11-21T03:43:04;15.88;;;4.85;;
36725;SDS011;44936;52.086;5.150;2022-11-21T03:45:31;21.65;;;6.47;;
36725;SDS011;44936;52.086;5.150;2022-11-21T03:47:57;22.88;;;5.57;;
36725;SDS011;44936;52.086;5.150;2022-11-21T03:52:55;19.30;;;4.85;;
36725;SDS011;44936;52.086;5.150;2022-11-21T03:55:27;18.27;;;4.93;;
36725;SDS011;44936;52.086;5.150;2022-11-21T03:57:52;17.10;;;5.22;;
36725;SDS011;44936;52.086;5.150;2022-11-21T04:00:18;26.90;;;6.20;;
36725;SDS011;44936;52.086;5.150;2022-11-21T04:02:50;20.85;;;5.43;;
36725;SDS011;44936;52.086;5.150;2022-11-21T04:05:17;19.13;;;4.93;;
36725;SDS011;44936;52.086;5.150;2022-11-21T04:07:44;18.77;;;4.95;;
36725;SDS011;44936;52.086;5.150;2022-11-21T04:10:10;19.42;;;5.70;;
36725;SDS011;44936;52.086;5.150;2022-11-21T04:12:38;20.75;;;5.00;;
36725;SDS011;44936;52.086;5.150;2022-11-21T04:15:03;25.65;;;5.72;;
36725;SDS011;44936;52.086;5.150;2022-11-21T04:17:31;18.15;;;5.30;;
36725;SDS011;44936;52.086;5.150;2022-11-21T04:20:00;25.38;;;5.28;;
36725;SDS011;44936;52.086;5.150;2022-11-21T04:22:37;17.75;;;5.13;;
36725;SDS011;44936;52.086;5.150;2022-11-21T04:25:03;21.83;;;5.85;;
36725;SDS011;44936;52.086;5.150;2022-11-21T04:27:31;24.65;;;5.60;;
36725;SDS011;44936;52.086;5.150;2022-11-21T04:29:57;18.95;;;5.85;;
36725;SDS011;44936;52.086;5.150;2022-11-21T04:32:22;19.88;;;5.03;;
36725;SDS011;44936;52.086;5.150;2022-11-21T04:34:47;19.27;;;5.28;;
36725;SDS011;44936;52.086;5.150;2022-11-21T04:37:13;20.23;;;6.22;;
36725;SDS011;44936;52.086;5.150;2022-11-21T04:39:44;22.80;;;5.55;;
36725;SDS011;44936;52.086;5.150;2022-11-21T04:42:12;26.45;;;6.00;;
36725;SDS011;44936;52.086;5.150;2022-11-21T04:44:41;22.25;;;6.13;;
36725;SDS011;44936;52.086;5.150;2022-11-21T04:47:09;24.60;;;6.43;;
36725;SDS011;44936;52.086;5.150;2022-11-21T04:49:35;20.65;;;5.90;;
36725;SDS011;44936;52.086;5.150;2022-11-21T04:52:03;19.23;;;5.60;;
36725;SDS011;44936;52.086;5.150;2022-11-21T04:54:29;17.95;;;4.93;;
36725;SDS011;44936;52.086;5.150;2022-11-21T04:56:57;24.27;;;6.20;;
36725;SDS011;44936;52.086;5.150;2022-11-21T04:59:22;23.45;;;6.80;;
36725;SDS011;44936;52.086;5.150;2022-11-21T05:01:51;23.58;;;5.60;;
36725;SDS011;44936;52.086;5.150;2022-11-21T05:04:16;23.40;;;5.35;;
36725;SDS011;44936;52.086;5.150;2022-11-21T05:06:42;21.42;;;5.43;;
36725;SDS011;44936;52.086;5.150;2022-11-21T05:09:10;22.95;;;6.25;;
36725;SDS011;44936;52.086;5.150;2022-11-21T05:11:36;22.77;;;6.30;;
36725;SDS011;44936;52.086;5.150;2022-11-21T05:14:23;19.63;;;5.50;;
36725;SDS011;44936;52.086;5.150;2022-11-21T05:16:58;26.10;;;6.00;;
36725;SDS011;44936;52.086;5.150;2022-11-21T05:19:24;24.33;;;5.93;;
36725;SDS011;44936;52.086;5.150;2022-11-21T05:21:52;21.52;;;5.53;;
36725;SDS011;44936;52.086;5.150;2022-11-21T05:24:18;20.45;;;5.93;;
36725;SDS011;44936;52.086;5.150;2022-11-21T05:26:43;19.13;;;5.30;;
36725;SDS011;44936;52.086;5.150;2022-11-21T05:29:09;20.35;;;5.35;;
36725;SDS011;44936;52.086;5.150;2022-11-21T05:31:45;23.65;;;6.07;;
36725;SDS011;44936;52.086;5.150;2022-11-21T05:34:14;23.88;;;6.65;;
36725;SDS011;44936;52.086;5.150;2022-11-21T05:36:39;24.35;;;4.97;;
36725;SDS011;44936;52.086;5.150;2022-11-21T05:39:05;23.98;;;6.13;;
36725;SDS011;44936;52.086;5.150;2022-11-21T05:41:30;27.05;;;6.15;;
36725;SDS011;44936;52.086;5.150;2022-11-21T05:43:56;21.77;;;5.50;;
36725;SDS011;44936;52.086;5.150;2022-11-21T05:46:25;26.27;;;6.70;;
36725;SDS011;44936;52.086;5.150;2022-11-21T05:48:53;22.45;;;5.82;;
36725;SDS011;44936;52.086;5.150;2022-11-21T05:51:20;23.23;;;6.00;;
36725;SDS011;44936;52.086;5.150;2022-11-21T05:53:46;22.75;;;5.05;;
36725;SDS011;44936;52.086;5.150;2022-11-21T05:56:18;19.50;;;5.10;;
36725;SDS011;44936;52.086;5.150;2022-11-21T05:58:43;19.75;;;4.68;;
36725;SDS011;44936;52.086;5.150;2022-11-21T06:01:10;23.63;;;5.15;;
36725;SDS011;44936;52.086;5.150;2022-11-21T06:04:00;21.40;;;6.20;;
36725;SDS011;44936;52.086;5.150;2022-11-21T06:06:33;23.38;;;5.75;;
36725;SDS011;44936;52.086;5.150;2022-11-21T06:09:04;19.45;;;5.82;;
36725;SDS011;44936;52.086;5.150;2022-11-21T06:11:32;20.92;;;4.80;;
36725;SDS011;44936;52.086;5.150;2022-11-21T06:14:01;26.02;;;5.82;;
36725;SDS011;44936;52.086;5.150;2022-11-21T06:16:29;26.77;;;6.20;;
36725;SDS011;44936;52.086;5.150;2022-11-21T06:18:57;25.45;;;6.35;;
36725;SDS011;44936;52.086;5.150;2022-11-21T06:21:28;24.92;;;5.97;;
36725;SDS011;44936;52.086;5.150;2022-11-21T06:23:57;19.70;;;5.15;;
36725;SDS011;44936;52.086;5.150;2022-11-21T06:26:25;20.33;;;5.18;;
36725;SDS011;44936;52.086;5.150;2022-11-21T06:28:51;28.35;;;6.45;;
36725;SDS011;44936;52.086;5.150;2022-11-21T06:31:18;18.00;;;6.60;;
36725;SDS011;44936;52.086;5.150;2022-11-21T06:33:46;22.85;;;6.03;;
36725;SDS011;44936;52.086;5.150;2022-11-21T06:36:15;29.30;;;6.05;;
36725;SDS011;44936;52.086;5.150;2022-11-21T06:38:41;18.65;;;3.83;;
36725;SDS011;44936;52.086;5.150;2022-11-21T06:43:38;14.90;;;3.80;;
36725;SDS011;44936;52.086;5.150;2022-11-21T06:46:03;15.48;;;4.55;;
36725;SDS011;44936;52.086;5.150;2022-11-21T06:48:29;21.75;;;4.93;;
36725;SDS011;44936;52.086;5.150;2022-11-21T06:50:56;16.35;;;5.20;;
36725;SDS011;44936;52.086;5.150;2022-11-21T06:53:24;14.82;;;4.43;;
36725;SDS011;44936;52.086;5.150;2022-11-21T06:55:56;19.58;;;4.72;;
36725;SDS011;44936;52.086;5.150;2022-11-21T06:58:28;16.95;;;4.50;;
36725;SDS011;44936;52.086;5.150;2022-11-21T07:00:57;19.08;;;4.13;;
36725;SDS011;44936;52.086;5.150;2022-11-21T07:03:34;15.05;;;4.32;;
36725;SDS011;44936;52.086;5.150;2022-11-21T07:06:02;16.52;;;3.92;;
36725;SDS011;44936;52.086;5.150;2022-11-21T07:08:32;16.27;;;4.78;;
36725;SDS011;44936;52.086;5.150;2022-11-21T07:11:08;16.33;;;4.88;;
36725;SDS011;44936;52.086;5.150;2022-11-21T07:13:39;17.95;;;4.25;;
36725;SDS011;44936;52.086;5.150;2022-11-21T07:16:07;16.27;;;4.60;;
36725;SDS011;44936;52.086;5.150;2022-11-21T07:18:34;19.23;;;4.50;;
36725;SDS011;44936;52.086;5.150;2022-11-21T07:21:01;15.95;;;4.00;;
36725;SDS011;44936;52.086;5.150;2022-11-21T07:23:28;16.63;;;4.70;;
36725;SDS011;44936;52.086;5.150;2022-11-21T07:25:54;17.90;;;4.65;;
36725;SDS011;44936;52.086;5.150;2022-11-21T07:28:23;23.63;;;5.65;;
36725;SDS011;44936;52.086;5.150;2022-11-21T07:30:49;15.25;;;4.30;;
36725;SDS011;44936;52.086;5.150;2022-11-21T07:33:14;19.73;;;5.15;;
36725;SDS011;44936;52.086;5.150;2022-11-21T07:35:40;20.30;;;4.72;;
36725;SDS011;44936;52.086;5.150;2022-11-21T07:38:06;16.38;;;4.93;;
36725;SDS011;44936;52.086;5.150;2022-11-21T07:40:34;22.60;;;5.03;;
36725;SDS011;44936;52.086;5.150;2022-11-21T07:43:03;18.15;;;4.40;;
36725;SDS011;44936;52.086;5.150;2022-11-21T07:45:30;21.23;;;5.10;;
36725;SDS011;44936;52.086;5.150;2022-11-21T07:47:59;15.60;;;4.30;;
36725;SDS011;44936;52.086;5.150;2022-11-21T07:50:26;29.10;;;6.38;;
36725;SDS011;44936;52.086;5.150;2022-11-21T07:53:11;19.27;;;4.43;;
36725;SDS011;44936;52.086;5.150;2022-11-21T07:55:36;24.70;;;5.55;;
36725;SDS011;44936;52.086;5.150;2022-11-21T07:58:03;17.42;;;5.22;;
36725;SDS011;44936;52.086;5.150;2022-11-21T08:00:31;17.45;;;5.03;;
36725;SDS011;44936;52.086;5.150;2022-11-21T08:03:02;16.83;;;4.57;;
36725;SDS011;44936;52.086;5.150;2022-11-21T08:05:37;18.50;;;5.10;;
36725;SDS011;44936;52.086;5.150;2022-11-21T08:08:07;23.27;;;5.53;;
36725;SDS011;44936;52.086;5.150;2022-11-21T08:10:37;25.83;;;5.82;;
36725;SDS011;44936;52.086;5.150;2022-11-21T08:13:04;17.35;;;4.20;;
36725;SDS011;44936;52.086;5.150;2022-11-21T08:15:38;20.58;;;4.15;;
36725;SDS011;44936;52.086;5.150;2022-11-21T08:18:10;16.85;;;5.18;;
36725;SDS011;44936;52.086;5.150;2022-11-21T08:20:39;20.75;;;6.13;;
36725;SDS011;44936;52.086;5.150;2022-11-21T08:23:08;17.02;;;4.50;;
36725;SDS011;44936;52.086;5.150;2022-11-21T08:25:38;17.38;;;5.15;;
36725;SDS011;44936;52.086;5.150;2022-11-21T08:28:05;18.38;;;4.85;;
36725;SDS011;44936;52.086;5.150;2022-11-21T08:30:36;20.50;;;5.88;;
36725;SDS011;44936;52.086;5.150;2022-11-21T08:33:03;15.70;;;4.65;;
36725;SDS011;44936;52.086;5.150;2022-11-21T08:35:29;19.75;;;5.15;;
36725;SDS011;44936;52.086;5.150;2022-11-21T08:37:55;22.35;;;4.65;;
36725;SDS011;44936;52.086;5.150;2022-11-21T08:40:24;16.98;;;5.18;;
36725;SDS011;44936;52.086;5.150;2022-11-21T08:42:55;17.58;;;4.85;;
36725;SDS011;44936;52.086;5.150;2022-11-21T08:45:24;14.07;;;3.92;;
36725;SDS011;44936;52.086;5.150;2022-11-21T08:47:53;15.15;;;4.63;;
36725;SDS011;44936;52.086;5.150;2022-11-21T08:50:19;15.00;;;4.50;;
36725;SDS011;44936;52.086;5.150;2022-11-21T08:52:59;15.65;;;4.68;;
36725;SDS011;44936;52.086;5.150;2022-11-21T08:55:25;13.82;;;4.07;;
36725;SDS011;44936;52.086;5.150;2022-11-21T08:57:51;14.40;;;4.53;;
36725;SDS011;44936;52.086;5.150;2022-11-21T09:00:16;14.15;;;4.53;;
36725;SDS011;44936;52.086;5.150;2022-11-21T09:02:42;15.98;;;4.60;;
36725;SDS011;44936;52.086;5.150;2022-11-21T09:05:17;16.40;;;4.07;;
36725;SDS011;44936;52.086;5.150;2022-11-21T09:07:42;14.77;;;5.35;;
36725;SDS011;44936;52.086;5.150;2022-11-21T09:10:10;19.08;;;4.43;;
36725;SDS011;44936;52.086;5.150;2022-11-21T09:12:46;14.68;;;4.55;;
36725;SDS011;44936;52.086;5.150;2022-11-21T09:15:11;19.27;;;5.25;;
36725;SDS011;44936;52.086;5.150;2022-11-21T09:18:00;17.10;;;5.30;;
36725;SDS011;44936;52.086;5.150;2022-11-21T09:20:29;16.58;;;4.65;;
36725;SDS011;44936;52.086;5.150;2022-11-21T09:22:56;14.40;;;4.28;;
36725;SDS011;44936;52.086;5.150;2022-11-21T09:25:21;14.27;;;4.47;;
36725;SDS011;44936;52.086;5.150;2022-11-21T09:27:47;14.80;;;4.78;;
36725;SDS011;44936;52.086;5.150;2022-11-21T09:30:13;13.95;;;3.78;;
36725;SDS011;44936;52.086;5.150;2022-11-21T09:32:41;17.30;;;4.45;;
36725;SDS011;44936;52.086;5.150;2022-11-21T09:35:06;17.38;;;4.85;;
36725;SDS011;44936;52.086;5.150;2022-11-21T09:37:38;12.80;;;4.10;;
36725;SDS011;44936;52.086;5.150;2022-11-21T09:40:04;13.52;;;4.63;;
36725;SDS011;44936;52.086;5.150;2022-11-21T09:45:18;11.32;;;4.97;;
36725;SDS011;44936;52.086;5.150;2022-11-21T09:47:50;10.67;;;3.17;;
36725;SDS011;44936;52.086;5.150;2022-11-21T09:55:52;16.13;;;4.55;;
36725;SDS011;44936;52.086;5.150;2022-11-21T09:58:29;14.30;;;3.95;;
36725;SDS011;44936;52.086;5.150;2022-11-21T10:01:01;12.63;;;4.35;;
36725;SDS011;44936;52.086;5.150;2022-11-21T10:03:28;15.45;;;4.57;;
36725;SDS011;44936;52.086;5.150;2022-11-21T10:06:03;18.58;;;4.80;;
36725;SDS011;44936;52.086;5.150;2022-11-21T10:08:40;13.98;;;4.28;;
36725;SDS011;44936;52.086;5.150;2022-11-21T10:17:36;18.10;;;5.00;;
36725;SDS011;44936;52.086;5.150;2022-11-21T10:25:38;17.63;;;5.18;;
36725;SDS011;44936;52.086;5.150;2022-11-21T10:30:43;16.52;;;4.70;;
36725;SDS011;44936;52.086;5.150;2022-11-21T10:33:52;16.70;;;5.47;;
36725;SDS011;44936;52.086;5.150;2022-11-21T10:38:58;15.52;;;5.05;;
36725;SDS011;44936;52.086;5.150;2022-11-21T10:41:41;21.35;;;5.40;;
36725;SDS011;44936;52.086;5.150;2022-11-21T10:44:26;15.38;;;5.30;;
36725;SDS011;44936;52.086;5.150;2022-11-21T10:47:20;18.05;;;5.78;;
36725;SDS011;44936;52.086;5.150;2022-11-21T10:52:44;19.42;;;5.22;;
36725;SDS011;44936;52.086;5.150;2022-11-21T10:55:16;19.02;;;5.72;;
36725;SDS011;44936;52.086;5.150;2022-11-21T10:57:45;15.80;;;5.45;;
36725;SDS011;44936;52.086;5.150;2022-11-21T11:02:38;15.10;;;5.07;;
36725;SDS011;44936;52.086;5.150;2022-11-21T11:07:43;14.98;;;5.18;;
36725;SDS011;44936;52.086;5.150;2022-11-21T11:10:24;19.08;;;6.45;;
36725;SDS011;44936;52.086;5.150;2022-11-21T11:12:50;16.55;;;5.68;;
36725;SDS011;44936;52.086;5.150;2022-11-21T11:15:35;19.52;;;5.35;;
36725;SDS011;44936;52.086;5.150;2022-11-21T11:18:04;17.10;;;5.13;;
36725;SDS011;44936;52.086;5.150;2022-11-21T11:20:42;19.60;;;5.40;;
36725;SDS011;44936;52.086;5.150;2022-11-21T11:23:14;16.83;;;5.30;;
36725;SDS011;44936;52.086;5.150;2022-11-21T11:25:43;15.73;;;5.68;;
36725;SDS011;44936;52.086;5.150;2022-11-21T11:30:38;13.18;;;4.35;;
36725;SDS011;44936;52.086;5.150;2022-11-21T11:36:03;15.45;;;4.35;;
36725;SDS011;44936;52.086;5.150;2022-11-21T11:38:30;13.15;;;3.97;;
36725;SDS011;44936;52.086;5.150;2022-11-21T11:40:59;12.32;;;3.95;;
36725;SDS011;44936;52.086;5.150;2022-11-21T11:46:44;10.25;;;2.70;;
36725;SDS011;44936;52.086;5.150;2022-11-21T11:49:51;8.63;;;2.75;;
36725;SDS011;44936;52.086;5.150;2022-11-21T11:52:38;7.68;;;3.08;;
36725;SDS011;44936;52.086;5.150;2022-11-21T11:55:17;6.68;;;2.08;;
36725;SDS011;44936;52.086;5.150;2022-11-21T11:58:00;7.88;;;2.67;;
36725;SDS011;44936;52.086;5.150;2022-11-21T12:05:30;6.18;;;2.05;;
36725;SDS011;44936;52.086;5.150;2022-11-21T12:08:16;9.27;;;1.95;;
36725;SDS011;44936;52.086;5.150;2022-11-21T12:10:50;5.97;;;2.08;;
36725;SDS011;44936;52.086;5.150;2022-11-21T12:13:40;4.43;;;2.15;;
36725;SDS011;44936;52.086;5.150;2022-11-21T12:16:09;4.80;;;1.73;;
36725;SDS011;44936;52.086;5.150;2022-11-21T12:21:15;4.10;;;1.80;;
36725;SDS011;44936;52.086;5.150;2022-11-21T12:29:05;4.38;;;1.48;;
36725;SDS011;44936;52.086;5.150;2022-11-21T12:46:10;7.38;;;1.17;;
36725;SDS011;44936;52.086;5.150;2022-11-21T12:57:10;0.95;;;0.60;;
36725;SDS011;44936;52.086;5.150;2022-11-21T13:05:28;2.42;;;0.95;;
36725;SDS011;44936;52.086;5.150;2022-11-21T13:08:05;3.90;;;1.20;;
36725;SDS011;44936;52.086;5.150;2022-11-21T13:10:54;2.88;;;1.05;;
36725;SDS011;44936;52.086;5.150;2022-11-21T13:13:46;3.58;;;1.10;;
36725;SDS011;44936;52.086;5.150;2022-11-21T13:16:22;1.23;;;1.00;;
36725;SDS011;44936;52.086;5.150;2022-11-21T13:19:02;2.67;;;1.30;;
36725;SDS011;44936;52.086;5.150;2022-11-21T13:21:48;4.95;;;1.40;;
36725;SDS011;44936;52.086;5.150;2022-11-21T13:27:31;5.78;;;1.35;;
36725;SDS011;44936;52.086;5.150;2022-11-21T13:40:34;3.30;;;1.30;;
36725;SDS011;44936;52.086;5.150;2022-11-21T13:45:49;5.70;;;1.95;;
36725;SDS011;44936;52.086;5.150;2022-11-21T13:56:33;4.90;;;1.20;;
36725;SDS011;44936;52.086;5.150;2022-11-21T14:05:09;3.07;;;1.50;;
36725;SDS011;44936;52.086;5.150;2022-11-21T14:07:49;4.80;;;1.30;;
36725;SDS011;44936;52.086;5.150;2022-11-21T14:12:49;3.90;;;1.65;;
36725;SDS011;44936;52.086;5.150;2022-11-21T14:18:18;5.35;;;2.15;;
36725;SDS011;44936;52.086;5.150;2022-11-21T14:23:18;5.57;;;1.70;;
36725;SDS011;44936;52.086;5.150;2022-11-21T14:25:55;4.93;;;1.95;;
36725;SDS011;44936;52.086;5.150;2022-11-21T14:28:28;4.43;;;1.35;;
36725;SDS011;44936;52.086;5.150;2022-11-21T14:31:00;4.95;;;1.95;;
36725;SDS011;44936;52.086;5.150;2022-11-21T14:36:13;4.25;;;1.80;;
36725;SDS011;44936;52.086;5.150;2022-11-21T14:38:42;2.70;;;1.52;;
36725;SDS011;44936;52.086;5.150;2022-11-21T14:41:21;3.10;;;1.45;;
36725;SDS011;44936;52.086;5.150;2022-11-21T14:46:26;9.25;;;2.00;;
36725;SDS011;44936;52.086;5.150;2022-11-21T14:51:40;5.22;;;1.80;;
36725;SDS011;44936;52.086;5.150;2022-11-21T14:54:18;6.55;;;1.83;;
36725;SDS011;44936;52.086;5.150;2022-11-21T14:56:56;6.35;;;1.70;;
36725;SDS011;44936;52.086;5.150;2022-11-21T14:59:32;5.40;;;1.70;;
36725;SDS011;44936;52.086;5.150;2022-11-21T15:02:05;7.85;;;2.10;;
36725;SDS011;44936;52.086;5.150;2022-11-21T15:04:40;6.57;;;1.67;;
36725;SDS011;44936;52.086;5.150;2022-11-21T15:09:44;3.38;;;1.67;;
36725;SDS011;44936;52.086;5.150;2022-11-21T15:12:10;10.60;;;1.70;;
36725;SDS011;44936;52.086;5.150;2022-11-21T15:14:53;6.18;;;1.45;;
36725;SDS011;44936;52.086;5.150;2022-11-21T15:17:20;6.72;;;1.58;;
36725;SDS011;44936;52.086;5.150;2022-11-21T15:20:01;5.03;;;1.60;;
36725;SDS011;44936;52.086;5.150;2022-11-21T15:22:32;9.48;;;1.73;;
36725;SDS011;44936;52.086;5.150;2022-11-21T15:25:05;7.35;;;1.73;;
36725;SDS011;44936;52.086;5.150;2022-11-21T15:27:47;3.58;;;1.65;;
36725;SDS011;44936;52.086;5.150;2022-11-21T15:38:48;2.97;;;1.63;;
36725;SDS011;44936;52.086;5.150;2022-11-21T15:43:47;5.32;;;1.73;;
36725;SDS011;44936;52.086;5.150;2022-11-21T15:48:52;4.95;;;1.58;;
36725;SDS011;44936;52.086;5.150;2022-11-21T15:51:32;4.70;;;1.50;;
36725;SDS011;44936;52.086;5.150;2022-11-21T15:53:59;3.95;;;1.30;;
36725;SDS011;44936;52.086;5.150;2022-11-21T15:56:25;4.07;;;1.52;;
36725;SDS011;44936;52.086;5.150;2022-11-21T15:58:54;6.13;;;1.63;;
36725;SDS011;44936;52.086;5.150;2022-11-21T16:01:20;7.30;;;1.65;;
36725;SDS011;44936;52.086;5.150;2022-11-21T16:03:57;7.80;;;1.80;;
36725;SDS011;44936;52.086;5.150;2022-11-21T16:06:26;7.18;;;1.88;;
36725;SDS011;44936;52.086;5.150;2022-11-21T16:08:54;3.78;;;1.50;;
36725;SDS011;44936;52.086;5.150;2022-11-21T16:14:02;4.38;;;1.52;;
36725;SDS011;44936;52.086;5.150;2022-11-21T16:16:29;4.53;;;1.40;;
36725;SDS011;44936;52.086;5.150;2022-11-21T16:19:01;5.73;;;1.70;;
36725;SDS011;44936;52.086;5.150;2022-11-21T16:21:26;8.82;;;1.80;;
36725;SDS011;44936;52.086;5.150;2022-11-21T16:23:52;5.18;;;1.42;;
36725;SDS011;44936;52.086;5.150;2022-11-21T16:26:22;3.40;;;1.92;;
36725;SDS011;44936;52.086;5.150;2022-11-21T16:28:53;5.50;;;1.60;;
36725;SDS011;44936;52.086;5.150;2022-11-21T16:31:20;4.65;;;1.38;;
36725;SDS011;44936;52.086;5.150;2022-11-21T16:33:50;1.75;;;1.27;;
36725;SDS011;44936;52.086;5.150;2022-11-21T16:36:20;4.75;;;1.30;;
36725;SDS011;44936;52.086;5.150;2022-11-21T16:38:49;3.47;;;1.02;;
36725;SDS011;44936;52.086;5.150;2022-11-21T16:41:15;5.70;;;1.42;;
36725;SDS011;44936;52.086;5.150;2022-11-21T16:43:46;4.90;;;1.70;;
36725;SDS011;44936;52.086;5.150;2022-11-21T16:46:16;4.25;;;1.23;;
36725;SDS011;44936;52.086;5.150;2022-11-21T16:48:43;6.55;;;1.65;;
36725;SDS011;44936;52.086;5.150;2022-11-21T16:51:18;3.53;;;1.15;;
36725;SDS011;44936;52.086;5.150;2022-11-21T16:53:45;4.88;;;1.05;;
36725;SDS011;44936;52.086;5.150;2022-11-21T16:56:12;2.83;;;1.33;;
36725;SDS011;44936;52.086;5.150;2022-11-21T16:58:38;3.10;;;1.30;;
36725;SDS011;44936;52.086;5.150;2022-11-21T17:01:12;3.85;;;1.23;;
36725;SDS011;44936;52.086;5.150;2022-11-21T17:03:45;3.65;;;1.25;;
36725;SDS011;44936;52.086;5.150;2022-11-21T17:06:13;2.08;;;0.90;;
36725;SDS011;44936;52.086;5.150;2022-11-21T17:08:40;1.58;;;0.98;;
36725;SDS011;44936;52.086;5.150;2022-11-21T17:11:16;2.28;;;1.00;;
36725;SDS011;44936;52.086;5.150;2022-11-21T17:13:46;2.95;;;1.20;;
36725;SDS011;44936;52.086;5.150;2022-11-21T17:16:13;3.05;;;1.30;;
36725;SDS011;44936;52.086;5.150;2022-11-21T17:18:40;1.02;;;0.93;;
36725;SDS011;44936;52.086;5.150;2022-11-21T17:21:08;2.38;;;1.00;;
36725;SDS011;44936;52.086;5.150;2022-11-21T17:23:35;2.95;;;1.23;;
36725;SDS011;44936;52.086;5.150;2022-11-21T17:26:09;2.97;;;1.30;;
36725;SDS011;44936;52.086;5.150;2022-11-21T17:28:39;5.40;;;1.20;;
36725;SDS011;44936;52.086;5.150;2022-11-21T17:31:10;1.42;;;0.90;;
36725;SDS011;44936;52.086;5.150;2022-11-21T17:33:37;2.83;;;0.95;;
36725;SDS011;44936;52.086;5.150;2022-11-21T17:36:16;4.28;;;1.20;;